»·PEaware :: N951J KRIF-KSLC

N951J :: KRIF-KSLC

FLIGHT INFORMATION

Flight Status: Arrived
Operator: Privately registered:
United States
More flights under this callsign
Pilot: Anonymous 29576 (29576)
Aircraft: MOONEY M-20 201 202 205 220 ATS MSE
(M20P)
More flights by this aircraft type
Origin: KRIF Richfield Mun
United States
Destination: KSLC Salt Lake City Intl
United States
More flights between these airports :: More routes between these airports
Route: +WKARA FFU
File this flight plan on PilotEdge
Remarks:
Altitude:
(Current/Filed)
12,000ft
Speed:
(Current/Filed)
170kts
Departed: 02-Aug-20 10:43 AM
Arrived: 02-Aug-20 11:40 AM
Distance/Time
Traveled:
128nm/0:57
Distance/Time
To Go:
Arrived

Flight Plot

Page will automatically refresh every two minutes.

Flight plan parsing failed; only flown route is shown


Map Options




Map Legend


Flown Route
Filed Route
Departure Airport
Arrival Airport
Navaid (VOR, NDB)
Fix

Horizontal Profiles

Position Reports

Time Latitude Longitude Heading Altitude Ground
Speed
02-Aug-20 10:31 38.743478 -112.093518 93 5277ft 0kts
02-Aug-20 10:32 38.743478 -112.093518 93 5277ft 0kts
02-Aug-20 10:33 38.743478 -112.093518 93 5277ft 0kts
02-Aug-20 10:34 38.743634 -112.093429 314 5277ft 1kts
02-Aug-20 10:35 38.743652 -112.093549 256 5277ft 0kts
02-Aug-20 10:36 38.743652 -112.093549 256 5277ft 0kts
02-Aug-20 10:37 38.743652 -112.093549 256 5277ft 0kts
02-Aug-20 10:38 38.743652 -112.093549 256 5277ft 0kts
02-Aug-20 10:39 38.743607 -112.093681 242 5277ft 3kts
02-Aug-20 10:40 38.742428 -112.095139 293 5277ft 0kts
02-Aug-20 10:41 38.742437 -112.095164 293 5277ft 1kts
02-Aug-20 10:42 38.737742 -112.099283 208 5290ft 91kts
02-Aug-20 10:43 38.712741 -112.114561 186 6244ft 107kts
02-Aug-20 10:44 38.710471 -112.083860 51 7254ft 121kts
02-Aug-20 10:45 38.738445 -112.051236 37 7898ft 152kts
02-Aug-20 10:46 38.774910 -112.021137 32 8425ft 158kts
02-Aug-20 10:47 38.814929 -112.000206 9 9051ft 154kts
02-Aug-20 10:48 38.856475 -111.989212 11 9748ft 150kts
02-Aug-20 10:49 38.896988 -111.977827 11 10407ft 150kts
02-Aug-20 10:50 38.937378 -111.966458 11 11105ft 146kts
02-Aug-20 10:51 38.976548 -111.955407 11 11803ft 142kts
02-Aug-20 10:52 39.014551 -111.944630 11 12499ft 137kts
02-Aug-20 10:53 39.051673 -111.934097 11 13113ft 139kts
02-Aug-20 10:54 39.090443 -111.923146 9 13626ft 145kts
02-Aug-20 10:55 39.131892 -111.923061 358 13951ft 160kts
02-Aug-20 10:56 39.179312 -111.923514 358 13947ft 178kts
02-Aug-20 10:57 39.229974 -111.924214 358 13945ft 184kts
02-Aug-20 10:58 39.281536 -111.924893 358 13945ft 186kts
02-Aug-20 10:59 39.333431 -111.925665 358 13945ft 186kts
02-Aug-20 11:00 39.385382 -111.926684 357 13945ft 187kts
02-Aug-20 11:01 39.437370 -111.927609 358 13945ft 187kts
02-Aug-20 11:02 39.489332 -111.928414 358 13945ft 187kts
02-Aug-20 11:03 39.541365 -111.929213 358 13944ft 187kts
02-Aug-20 11:04 39.593544 -111.930015 358 13942ft 187kts
02-Aug-20 11:05 39.645529 -111.930816 358 13941ft 187kts
02-Aug-20 11:06 39.697741 -111.931621 358 13939ft 187kts
02-Aug-20 11:07 39.749910 -111.932427 358 13938ft 187kts
02-Aug-20 11:08 39.802026 -111.933233 358 13937ft 187kts
02-Aug-20 11:09 39.854218 -111.934042 358 13936ft 187kts
02-Aug-20 11:10 39.906166 -111.934849 358 13936ft 187kts
02-Aug-20 11:11 39.958398 -111.935660 358 13936ft 187kts
02-Aug-20 11:12 40.010588 -111.936473 358 13936ft 187kts
02-Aug-20 11:13 40.062726 -111.937286 358 13936ft 187kts
02-Aug-20 11:14 40.114893 -111.937138 358 13936ft 187kts
02-Aug-20 11:15 40.166993 -111.938710 357 13935ft 187kts
02-Aug-20 11:16 40.219153 -111.939720 358 13935ft 187kts
02-Aug-20 11:17 40.270380 -111.940529 358 14064ft 183kts
02-Aug-20 11:18 40.321703 -111.943853 355 14064ft 186kts
02-Aug-20 11:19 40.373487 -111.947682 355 14058ft 187kts
02-Aug-20 11:20 40.425492 -111.951442 355 14051ft 187kts
02-Aug-20 11:21 40.477182 -111.958941 341 14044ft 186kts
02-Aug-20 11:22 40.526905 -111.979543 340 14030ft 187kts
02-Aug-20 11:23 40.576369 -112.000658 340 14020ft 187kts
02-Aug-20 11:24 40.625957 -112.021825 340 14011ft 187kts
02-Aug-20 11:25 40.675350 -112.042905 340 14009ft 186kts
02-Aug-20 11:26 40.724556 -112.063899 340 14009ft 186kts
02-Aug-20 11:27 40.774013 -112.084234 348 14009ft 186kts
02-Aug-20 11:28 40.829565 -112.096168 349 13091ft 210kts
02-Aug-20 11:29 40.885619 -112.108353 349 12081ft 198kts
02-Aug-20 11:30 40.939257 -112.119616 350 11077ft 193kts
02-Aug-20 11:31 40.992003 -112.128063 15 10067ft 191kts
02-Aug-20 11:32 40.998860 -112.069241 109 9108ft 180kts
02-Aug-20 11:33 40.973724 -112.013793 138 8119ft 180kts
02-Aug-20 11:34 40.933747 -111.976471 166 7080ft 143kts
02-Aug-20 11:35 40.898533 -111.972244 174 6073ft 132kts
02-Aug-20 11:36 40.860496 -111.965063 171 5461ft 144kts
02-Aug-20 11:37 40.822183 -111.962433 176 4643ft 118kts
02-Aug-20 11:38 40.795022 -111.962035 181 4218ft 67kts
02-Aug-20 11:39 40.786083 -111.960697 108 4218ft 0kts
02-Aug-20 11:40 40.784748 -111.960031 179 4218ft 14kts
02-Aug-20 11:41 40.779427 -111.958559 163 4221ft 18kts
02-Aug-20 11:42 40.859683 -111.964930 172 5451ft 144kts

Navigation Log

Ident Type
Flight plan parsing failed, navigation log unavailable